createdAt,value
2018-07-26T00:01:55.819Z,100843.44
2018-07-26T00:04:25.461Z,100840.39
2018-07-26T00:06:54.312Z,100834.30
2018-07-26T00:09:23.634Z,100834.40
2018-07-26T00:11:52.234Z,100831.09
2018-07-26T00:14:20.694Z,100828.77
2018-07-26T00:16:49.277Z,100828.14
2018-07-26T00:19:17.767Z,100828.94
2018-07-26T00:21:46.233Z,100827.23
2018-07-26T00:24:15.797Z,100827.47
2018-07-26T00:26:45.452Z,100827.57
2018-07-26T00:29:14.079Z,100830.02
2018-07-26T00:31:43.140Z,100829.00
2018-07-26T00:34:11.618Z,100828.84
2018-07-26T00:36:45.491Z,100822.70
2018-07-26T00:39:14.137Z,100825.30
2018-07-26T00:41:43.781Z,100815.69
2018-07-26T00:44:12.384Z,100821.88
2018-07-26T00:46:41.069Z,100814.08
2018-07-26T00:49:09.510Z,100825.86
2018-07-26T00:51:37.998Z,100817.15
2018-07-26T00:54:06.540Z,100823.80
2018-07-26T00:56:35.168Z,100834.45
2018-07-26T00:59:03.751Z,100819.86
2018-07-26T01:01:32.382Z,100826.05
2018-07-26T01:04:00.881Z,100826.19
2018-07-26T01:06:29.747Z,100825.81
2018-07-26T01:08:58.444Z,100822.36
2018-07-26T01:11:27.404Z,100822.12
2018-07-26T01:13:55.917Z,100821.33
2018-07-26T01:16:24.598Z,100814.09
2018-07-26T01:18:53.056Z,100822.06
2018-07-26T01:21:21.842Z,100819.47
2018-07-26T01:23:50.621Z,100814.98
2018-07-26T01:26:19.881Z,100815.66
2018-07-26T01:28:48.354Z,100812.72
2018-07-26T01:31:16.960Z,100818.66
2018-07-26T01:33:45.694Z,100818.78
2018-07-26T01:36:14.368Z,100823.63
2018-07-26T01:38:42.902Z,100821.77
2018-07-26T01:41:11.431Z,100821.48
2018-07-26T01:43:52.048Z,100825.95
2018-07-26T01:46:22.167Z,100826.52
2018-07-26T01:48:50.822Z,100825.64
2018-07-26T01:51:19.341Z,100816.66
2018-07-26T01:53:47.984Z,100815.61
2018-07-26T01:56:16.623Z,100816.48
2018-07-26T01:58:45.296Z,100818.56
2018-07-26T02:01:14.563Z,100814.92
2018-07-26T02:03:43.016Z,100815.98
2018-07-26T02:06:11.499Z,100821.27
2018-07-26T02:08:39.949Z,100813.09
2018-07-26T02:11:08.429Z,100814.52
2018-07-26T02:13:36.994Z,100812.44
2018-07-26T02:16:05.447Z,100813.13
2018-07-26T02:18:33.929Z,100810.08
2018-07-26T02:21:02.417Z,100804.08
2018-07-26T02:23:31.612Z,100805.54
2018-07-26T02:26:00.216Z,100805.63
2018-07-26T02:28:28.824Z,100811.56
2018-07-26T02:30:57.351Z,100820.05
2018-07-26T02:33:25.993Z,100814.83
2018-07-26T02:35:54.490Z,100814.64
2018-07-26T02:38:23.171Z,100812.92
2018-07-26T02:40:51.726Z,100814.02
2018-07-26T02:43:20.241Z,100814.56
2018-07-26T02:45:48.878Z,100810.70
2018-07-26T02:48:17.381Z,100812.72
2018-07-26T02:50:45.995Z,100808.64
2018-07-26T02:53:14.586Z,100807.73
2018-07-26T02:55:43.105Z,100806.58
2018-07-26T02:58:11.739Z,100812.00
2018-07-26T03:00:40.936Z,100810.68
2018-07-26T03:03:09.459Z,100809.86
2018-07-26T03:05:37.976Z,100810.65
2018-07-26T03:08:06.670Z,100818.16
2018-07-26T03:10:35.144Z,100814.94
2018-07-26T03:13:03.804Z,100811.77
2018-07-26T03:15:33.009Z,100811.48
2018-07-26T03:18:01.582Z,100809.52
2018-07-26T03:20:30.254Z,100819.33
2018-07-26T03:22:58.892Z,100810.36
2018-07-26T03:25:27.692Z,100816.28
2018-07-26T03:27:56.382Z,100820.30
2018-07-26T03:30:25.245Z,100820.13
2018-07-26T03:32:54.156Z,100812.20
2018-07-26T03:35:23.429Z,100812.70
2018-07-26T03:37:52.182Z,100812.33
2018-07-26T03:40:21.096Z,100814.62
2018-07-26T03:42:50.034Z,100810.33
2018-07-26T03:45:23.790Z,100810.91
2018-07-26T03:47:52.376Z,100808.65
2018-07-26T03:50:21.321Z,100805.31
2018-07-26T03:52:50.086Z,100813.03
2018-07-26T03:55:19.186Z,100812.73
2018-07-26T03:57:48.486Z,100819.41
2018-07-26T04:00:17.361Z,100815.66
2018-07-26T04:02:45.861Z,100818.05
2018-07-26T04:05:14.518Z,100818.91
2018-07-26T04:07:43.330Z,100813.28
2018-07-26T04:10:12.469Z,100815.88
2018-07-26T04:12:41.595Z,100810.73
2018-07-26T04:15:10.491Z,100815.38
2018-07-26T04:17:40.014Z,100812.33
2018-07-26T04:20:09.649Z,100816.08
2018-07-26T04:22:38.480Z,100817.29
2018-07-26T04:25:07.212Z,100821.20
2018-07-26T04:27:36.590Z,100821.00
2018-07-26T04:30:06.004Z,100823.70
2018-07-26T04:32:34.954Z,100821.91
2018-07-26T04:35:03.586Z,100822.66
2018-07-26T04:37:32.486Z,100821.23
2018-07-26T04:40:01.255Z,100819.44
2018-07-26T04:42:29.847Z,100826.48
2018-07-26T04:44:59.204Z,100825.53
2018-07-26T04:47:27.840Z,100829.03
2018-07-26T04:49:56.997Z,100823.33
2018-07-26T04:52:26.049Z,100822.54
2018-07-26T04:54:55.041Z,100819.67
2018-07-26T04:57:23.752Z,100813.95
2018-07-26T04:59:52.813Z,100814.62
2018-07-26T05:02:21.729Z,100810.50
2018-07-26T05:04:55.873Z,100813.25
2018-07-26T05:07:24.708Z,100815.37
2018-07-26T05:09:53.710Z,100827.26
2018-07-26T05:12:22.652Z,100830.30
2018-07-26T05:14:51.453Z,100823.63
2018-07-26T05:17:20.792Z,100820.13
2018-07-26T05:19:49.878Z,100832.22
2018-07-26T05:22:18.930Z,100829.92
2018-07-26T05:24:47.724Z,100834.59
2018-07-26T05:27:16.459Z,100839.59
2018-07-26T05:29:46.048Z,100833.13
2018-07-26T05:32:14.943Z,100836.53
2018-07-26T05:34:43.803Z,100838.53
2018-07-26T05:37:12.764Z,100834.02
2018-07-26T05:39:41.870Z,100837.26
2018-07-26T05:42:11.256Z,100835.50
2018-07-26T05:44:40.269Z,100839.27
2018-07-26T05:47:09.668Z,100836.95
2018-07-26T05:49:38.449Z,100837.02
2018-07-26T05:52:07.239Z,100836.05
2018-07-26T05:54:36.355Z,100843.77
2018-07-26T05:57:05.148Z,100844.20
2018-07-26T05:59:34.286Z,100846.34
2018-07-26T06:02:03.044Z,100839.45
2018-07-26T06:04:37.040Z,100847.37
2018-07-26T06:07:06.159Z,100847.69
2018-07-26T06:09:34.875Z,100848.06
2018-07-26T06:12:03.977Z,100852.35
2018-07-26T06:14:38.964Z,100849.83
2018-07-26T06:17:07.710Z,100844.55
2018-07-26T06:19:36.661Z,100848.76
2018-07-26T06:22:05.968Z,100847.25
2018-07-26T06:24:34.742Z,100842.73
2018-07-26T06:27:03.763Z,100839.19
2018-07-26T06:29:32.810Z,100845.58
2018-07-26T06:32:02.249Z,100835.14
2018-07-26T06:34:31.118Z,100847.69
2018-07-26T06:36:59.945Z,100838.56
2018-07-26T06:39:28.915Z,100843.89
2018-07-26T06:41:57.680Z,100839.66
2018-07-26T06:44:26.679Z,100837.94
2018-07-26T06:46:59.019Z,100836.75
2018-07-26T06:49:28.050Z,100833.50
2018-07-26T06:51:57.641Z,100831.30
2018-07-26T06:54:26.455Z,100830.70
2018-07-26T06:56:55.889Z,100831.80
2018-07-26T06:59:25.080Z,100833.31
2018-07-26T07:01:54.079Z,100834.19
2018-07-26T07:04:23.566Z,100832.89
2018-07-26T07:06:52.404Z,100837.21
2018-07-26T07:09:21.664Z,100828.61
2018-07-26T07:11:50.600Z,100834.53
2018-07-26T07:14:19.621Z,100830.64
2018-07-26T07:16:48.681Z,100826.59
2018-07-26T07:19:17.714Z,100829.66
2018-07-26T07:21:46.654Z,100832.47
2018-07-26T07:24:20.526Z,100831.99
2018-07-26T07:26:51.282Z,100827.63
2018-07-26T07:29:20.240Z,100833.75
2018-07-26T07:31:49.655Z,100831.48
2018-07-26T07:34:18.718Z,100831.98
2018-07-26T07:36:47.763Z,100832.47
2018-07-26T07:39:16.551Z,100829.70
2018-07-26T07:41:45.515Z,100833.73
2018-07-26T07:44:14.503Z,100835.96
2018-07-26T07:46:43.393Z,100833.19
2018-07-26T07:49:12.058Z,100834.43
2018-07-26T07:51:40.911Z,100830.27
2018-07-26T07:54:09.447Z,100830.78
2018-07-26T07:56:38.308Z,100828.11
2018-07-26T07:59:07.233Z,100834.08
2018-07-26T08:01:35.950Z,100836.66
2018-07-26T08:04:05.113Z,100832.63
2018-07-26T08:06:34.268Z,100830.59
2018-07-26T08:09:03.054Z,100829.36
2018-07-26T08:11:31.752Z,100832.77
2018-07-26T08:14:00.843Z,100831.56
2018-07-26T08:16:29.825Z,100832.02
2018-07-26T08:18:58.633Z,100829.20
2018-07-26T08:21:27.358Z,100827.72
2018-07-26T08:23:56.106Z,100830.37
2018-07-26T08:26:25.116Z,100832.39
2018-07-26T08:28:54.310Z,100830.77
2018-07-26T08:31:23.120Z,100830.51
2018-07-26T08:33:51.693Z,100828.88
2018-07-26T08:36:21.007Z,100829.69
2018-07-26T08:38:49.977Z,100825.74
2018-07-26T08:41:19.524Z,100827.14
2018-07-26T08:43:48.568Z,100832.58
2018-07-26T08:46:17.684Z,100827.63
2018-07-26T08:48:47.122Z,100824.11
2018-07-26T08:51:15.805Z,100825.33
2018-07-26T08:53:45.029Z,100824.02
2018-07-26T08:56:14.045Z,100823.09
2018-07-26T08:58:42.644Z,100823.07
2018-07-26T09:01:11.623Z,100821.98
2018-07-26T09:03:40.656Z,100823.76
2018-07-26T09:06:09.839Z,100819.45
2018-07-26T09:08:38.827Z,100820.03
2018-07-26T09:11:07.653Z,100817.38
2018-07-26T09:13:36.403Z,100817.02
2018-07-26T09:16:05.434Z,100815.92
2018-07-26T09:18:34.095Z,100812.92
2018-07-26T09:21:02.898Z,100811.00
2018-07-26T09:23:31.902Z,100805.36
2018-07-26T09:26:00.522Z,100811.15
2018-07-26T09:28:29.073Z,100804.06
2018-07-26T09:30:57.660Z,100804.94
2018-07-26T09:33:26.464Z,100799.87
2018-07-26T09:35:55.457Z,100796.47
2018-07-26T09:38:24.223Z,100794.30
2018-07-26T09:40:53.067Z,100796.87
2018-07-26T09:43:21.851Z,100797.38
2018-07-26T09:45:50.648Z,100794.14
2018-07-26T09:48:19.722Z,100790.56
2018-07-26T09:50:48.652Z,100788.15
2018-07-26T09:53:17.316Z,100787.58
2018-07-26T09:55:46.158Z,100782.81
2018-07-26T09:58:14.661Z,100784.83
2018-07-26T10:00:48.483Z,100784.40
2018-07-26T10:03:17.270Z,100777.91
2018-07-26T10:05:46.145Z,100783.77
2018-07-26T10:08:14.989Z,100774.93
2018-07-26T10:10:43.798Z,100779.06
2018-07-26T10:13:12.975Z,100776.78
2018-07-26T10:15:41.630Z,100767.73
2018-07-26T10:18:10.320Z,100765.39
2018-07-26T10:20:39.357Z,100764.07
2018-07-26T10:23:08.076Z,100766.97
2018-07-26T10:25:37.314Z,100757.66
2018-07-26T10:28:06.525Z,100757.84
2018-07-26T10:30:35.824Z,100750.03
2018-07-26T10:33:04.849Z,100755.68
2018-07-26T10:35:33.931Z,100752.47
2018-07-26T10:38:02.548Z,100746.02
2018-07-26T10:40:31.486Z,100748.26
2018-07-26T10:43:00.367Z,100749.09
2018-07-26T10:45:29.384Z,100750.59
2018-07-26T10:47:58.743Z,100742.38
2018-07-26T10:50:27.788Z,100740.28
2018-07-26T10:52:58.319Z,100740.27
2018-07-26T10:55:33.562Z,100735.79
2018-07-26T10:58:07.201Z,100736.72
2018-07-26T11:00:38.270Z,100736.44
2018-07-26T11:03:13.635Z,100730.19
2018-07-26T11:05:51.814Z,100726.05
2018-07-26T11:28:31.470Z,100713.93
2018-07-26T11:31:00.250Z,100711.14
2018-07-26T11:33:29.354Z,100718.51
2018-07-26T11:35:58.534Z,100719.95
2018-07-26T11:38:27.660Z,100714.48
2018-07-26T11:40:57.063Z,100713.70
2018-07-26T11:43:25.945Z,100711.23
2018-07-26T11:45:55.188Z,100709.76
2018-07-26T11:48:24.113Z,100707.64
2018-07-26T11:50:52.813Z,100704.98
2018-07-26T11:53:22.019Z,100700.30
2018-07-26T11:55:52.284Z,100700.20
2018-07-26T11:58:21.102Z,100695.53
2018-07-26T12:00:50.091Z,100701.02
2018-07-26T12:03:25.213Z,100689.16
2018-07-26T12:05:54.638Z,100691.45
2018-07-26T12:08:23.083Z,100687.64
2018-07-26T12:10:51.896Z,100700.64
2018-07-26T12:13:21.495Z,100684.20
2018-07-26T12:15:50.355Z,100687.22
2018-07-26T12:18:19.504Z,100684.63
2018-07-26T12:20:48.348Z,100676.91
2018-07-26T12:23:17.423Z,100681.02
2018-07-26T12:25:46.209Z,100678.40
2018-07-26T12:28:15.248Z,100670.41
2018-07-26T12:30:44.498Z,100663.03
2018-07-26T12:33:13.807Z,100664.93
2018-07-26T12:35:43.291Z,100669.86
2018-07-26T12:38:12.589Z,100654.27
2018-07-26T12:40:41.792Z,100655.30
2018-07-26T12:43:11.598Z,100657.61
2018-07-26T12:45:40.606Z,100654.31
2018-07-26T12:48:09.578Z,100657.93
2018-07-26T12:50:38.709Z,100653.96
2018-07-26T12:53:07.473Z,100643.35
2018-07-26T12:55:36.301Z,100650.79
2018-07-26T12:58:05.498Z,100643.94
2018-07-26T13:00:34.790Z,100631.16
2018-07-26T13:03:03.785Z,100635.34
2018-07-26T13:05:33.189Z,100629.31
2018-07-26T13:08:02.357Z,100628.92
2018-07-26T13:10:31.763Z,100630.27
2018-07-26T13:13:01.374Z,100629.75
2018-07-26T13:15:30.754Z,100620.89
2018-07-26T13:18:00.114Z,100627.73
2018-07-26T13:20:29.420Z,100631.55
2018-07-26T13:22:58.607Z,100620.77
2018-07-26T13:25:27.452Z,100625.28
2018-07-26T13:27:56.686Z,100620.06
2018-07-26T13:30:26.256Z,100616.16
2018-07-26T13:32:55.369Z,100612.86
2018-07-26T13:35:24.725Z,100609.28
2018-07-26T13:37:53.970Z,100610.70
2018-07-26T13:40:23.411Z,100610.97
2018-07-26T13:42:52.283Z,100607.55
2018-07-26T13:45:21.494Z,100609.09
2018-07-26T13:47:50.528Z,100610.80
2018-07-26T13:50:19.675Z,100608.31
2018-07-26T13:52:48.536Z,100605.98
2018-07-26T13:55:17.737Z,100607.48
2018-07-26T13:57:46.626Z,100607.38
2018-07-26T14:00:15.451Z,100603.70
2018-07-26T14:02:44.701Z,100595.69
2018-07-26T14:05:14.296Z,100592.55
2018-07-26T14:07:43.544Z,100593.18
2018-07-26T14:10:12.110Z,100586.14
2018-07-26T14:12:42.293Z,100584.28
2018-07-26T14:15:12.489Z,100581.02
2018-07-26T14:17:42.564Z,100571.09
2018-07-26T14:20:14.202Z,100570.05
2018-07-26T14:22:43.637Z,100570.23
2018-07-26T14:25:13.420Z,100571.58
2018-07-26T14:27:43.198Z,100567.81
2018-07-26T14:30:12.909Z,100578.73
2018-07-26T14:32:42.909Z,100572.91
2018-07-26T14:35:13.194Z,100577.45
2018-07-26T14:37:49.206Z,100577.11
2018-07-26T15:00:29.026Z,100561.36
2018-07-26T15:02:58.263Z,100556.49
2018-07-26T15:05:27.613Z,100566.91
2018-07-26T15:07:56.666Z,100568.41
2018-07-26T15:10:25.557Z,100566.05
2018-07-26T15:12:54.639Z,100568.96
2018-07-26T15:15:23.983Z,100570.91
2018-07-26T15:17:53.232Z,100575.01
2018-07-26T15:20:21.887Z,100577.42
2018-07-26T15:22:50.706Z,100576.25
2018-07-26T15:25:24.973Z,100566.71
2018-07-26T15:27:54.624Z,100568.28
2018-07-26T15:30:23.676Z,100563.67
2018-07-26T15:32:53.448Z,100565.86
2018-07-26T15:35:22.840Z,100564.16
2018-07-26T15:37:52.065Z,100556.51
2018-07-26T15:40:21.236Z,100555.28
2018-07-26T15:42:50.395Z,100553.70
2018-07-26T15:45:19.362Z,100555.30
2018-07-26T15:47:48.516Z,100555.34
2018-07-26T15:50:17.630Z,100543.27
2018-07-26T15:52:47.022Z,100548.89
2018-07-26T15:55:16.785Z,100548.87
2018-07-26T15:57:45.892Z,100539.66
2018-07-26T16:00:15.089Z,100542.70
2018-07-26T16:02:44.068Z,100542.24
2018-07-26T16:05:13.207Z,100540.09
2018-07-26T16:07:42.682Z,100545.75
2018-07-26T16:10:11.835Z,100543.78
2018-07-26T16:12:40.854Z,100543.67
2018-07-26T16:15:10.993Z,100554.11
2018-07-26T16:17:40.797Z,100551.94
2018-07-26T16:20:10.671Z,100550.26
2018-07-26T16:22:39.936Z,100550.95
2018-07-26T16:25:10.125Z,100555.58
2018-07-26T16:27:42.346Z,100559.49
2018-07-26T17:21:54.950Z,100591.57
2018-07-26T17:32:11.652Z,100585.17
2018-07-26T17:42:05.814Z,100559.76
2018-07-26T17:44:34.914Z,100562.33
2018-07-26T17:47:04.132Z,100556.72
2018-07-26T17:49:32.814Z,100560.03
2018-07-26T17:52:01.756Z,100552.70
2018-07-26T17:54:30.566Z,100557.87
2018-07-26T17:56:59.722Z,100561.30
2018-07-26T17:59:28.889Z,100557.12
2018-07-26T18:01:57.540Z,100557.16
2018-07-26T18:04:26.569Z,100558.35
2018-07-26T18:06:55.370Z,100555.83
2018-07-26T18:09:24.484Z,100557.55
2018-07-26T18:11:53.488Z,100561.79
2018-07-26T18:14:22.744Z,100566.72
2018-07-26T18:16:51.795Z,100568.06
2018-07-26T18:19:20.477Z,100563.32
2018-07-26T18:21:49.675Z,100565.02
2018-07-26T18:24:18.833Z,100563.67
2018-07-26T18:26:47.993Z,100556.37
2018-07-26T18:29:17.118Z,100561.77
2018-07-26T18:31:46.303Z,100572.27
2018-07-26T18:34:15.328Z,100570.94
2018-07-26T18:36:44.588Z,100570.26
2018-07-26T18:39:14.089Z,100581.09
2018-07-26T18:41:43.244Z,100584.98
2018-07-26T18:44:12.333Z,100580.14
2018-07-26T18:46:41.236Z,100587.98
2018-07-26T18:49:10.241Z,100592.17
2018-07-26T18:51:45.903Z,100597.11
2018-07-26T18:54:14.989Z,100590.39
2018-07-26T18:56:43.763Z,100599.43
2018-07-26T18:59:12.488Z,100592.60
2018-07-26T19:01:41.419Z,100593.83
2018-07-26T19:04:10.685Z,100597.36
2018-07-26T19:06:40.130Z,100597.95
2018-07-26T19:09:11.243Z,100599.30
2018-07-26T19:11:40.520Z,100611.62
2018-07-26T19:14:09.886Z,100614.56
2018-07-26T19:16:39.089Z,100610.52
2018-07-26T19:19:08.087Z,100617.95
2018-07-26T19:21:37.018Z,100609.70
2018-07-26T19:24:06.220Z,100619.95
2018-07-26T19:26:41.337Z,100622.80
2018-07-26T19:29:10.197Z,100614.20
2018-07-26T19:31:39.285Z,100630.16
2018-07-26T19:34:08.139Z,100619.55
2018-07-26T19:36:36.922Z,100624.84
2018-07-26T19:39:09.783Z,100624.08
2018-07-26T19:41:38.635Z,100626.89
2018-07-26T19:44:07.709Z,100629.14
2018-07-26T19:46:36.422Z,100632.45
2018-07-26T19:49:05.354Z,100633.98
2018-07-26T19:51:33.969Z,100636.33
2018-07-26T19:54:02.704Z,100633.71
2018-07-26T19:56:31.712Z,100632.70
2018-07-26T19:59:00.513Z,100633.09
2018-07-26T20:01:29.063Z,100637.77
2018-07-26T20:03:57.925Z,100633.92
2018-07-26T20:06:26.501Z,100631.23
2018-07-26T20:08:55.150Z,100628.38
2018-07-26T20:11:23.785Z,100626.83
2018-07-26T20:13:52.350Z,100627.38
2018-07-26T20:16:20.861Z,100622.81
2018-07-26T20:18:49.720Z,100617.03
2018-07-26T20:21:18.181Z,100625.47
2018-07-26T20:23:46.847Z,100616.92
2018-07-26T20:26:15.659Z,100620.80
2018-07-26T20:28:45.144Z,100615.92
2018-07-26T20:31:13.711Z,100615.41
2018-07-26T20:33:42.235Z,100616.92
2018-07-26T20:36:10.755Z,100612.67
2018-07-26T20:38:39.353Z,100611.11
2018-07-26T20:41:08.215Z,100611.55
2018-07-26T20:43:36.776Z,100615.53
2018-07-26T20:46:05.676Z,100621.23
2018-07-26T20:48:35.703Z,100616.64
2018-07-26T20:51:04.249Z,100621.13
2018-07-26T20:53:32.891Z,100618.52
2018-07-26T20:56:01.351Z,100617.75
2018-07-26T20:58:29.923Z,100620.92
2018-07-26T21:00:58.602Z,100625.20
2018-07-26T21:03:27.173Z,100627.13
2018-07-26T21:05:56.113Z,100628.20
2018-07-26T21:08:24.612Z,100630.64
2018-07-26T21:10:53.225Z,100625.17
2018-07-26T21:13:21.820Z,100626.59
2018-07-26T21:15:50.433Z,100635.28
2018-07-26T21:18:18.852Z,100640.25
2018-07-26T21:20:47.351Z,100639.97
2018-07-26T21:23:16.148Z,100647.49
2018-07-26T21:25:46.819Z,100645.73
2018-07-26T21:28:15.575Z,100648.92
2018-07-26T21:30:44.221Z,100649.78
2018-07-26T21:33:13.141Z,100653.66
2018-07-26T21:35:41.786Z,100653.40
2018-07-26T21:38:10.467Z,100651.23
2018-07-26T21:40:39.108Z,100658.06
2018-07-26T21:43:07.684Z,100656.20
2018-07-26T21:45:36.142Z,100654.50
2018-07-26T21:48:04.842Z,100657.42
2018-07-26T21:50:33.710Z,100661.11
2018-07-26T21:53:02.284Z,100666.64
2018-07-26T21:55:31.109Z,100668.06
2018-07-26T21:57:59.668Z,100663.48
2018-07-26T22:00:37.796Z,100663.96
2018-07-26T22:03:07.263Z,100666.67
2018-07-26T22:05:36.447Z,100669.85
2018-07-26T22:08:05.312Z,100671.72
2018-07-26T22:10:33.848Z,100666.58
2018-07-26T22:13:02.331Z,100668.09
2018-07-26T22:15:30.923Z,100672.62
2018-07-26T22:17:59.367Z,100669.57
2018-07-26T22:20:28.022Z,100684.91
2018-07-26T22:22:56.993Z,100681.77
2018-07-26T22:25:25.506Z,100690.59
2018-07-26T22:27:53.965Z,100690.17
2018-07-26T22:30:22.461Z,100687.16
2018-07-26T22:32:51.222Z,100685.27
2018-07-26T22:35:19.737Z,100686.38
2018-07-26T22:37:48.253Z,100688.37
2018-07-26T22:40:16.844Z,100687.92
2018-07-26T22:42:48.226Z,100690.19
2018-07-26T22:45:16.891Z,100698.04
2018-07-26T22:47:45.605Z,100693.64
2018-07-26T22:50:14.132Z,100689.38
2018-07-26T22:52:42.869Z,100691.01
2018-07-26T22:55:11.450Z,100691.52
2018-07-26T22:57:40.200Z,100692.99
2018-07-26T23:00:08.963Z,100694.63
2018-07-26T23:02:37.702Z,100687.31
2018-07-26T23:05:06.740Z,100698.45
2018-07-26T23:07:35.369Z,100690.07
2018-07-26T23:10:03.921Z,100692.69
2018-07-26T23:12:32.439Z,100698.32
2018-07-26T23:15:00.964Z,100695.27
2018-07-26T23:17:29.432Z,100699.52
2018-07-26T23:19:57.996Z,100697.06
2018-07-26T23:22:26.657Z,100698.34
2018-07-26T23:24:55.439Z,100696.68
2018-07-26T23:27:24.073Z,100689.16
2018-07-26T23:29:52.728Z,100696.36
2018-07-26T23:32:21.404Z,100696.77
2018-07-26T23:34:49.852Z,100700.20
2018-07-26T23:37:18.496Z,100697.91
2018-07-26T23:39:46.937Z,100700.37
2018-07-26T23:42:15.400Z,100702.94
